Time;durP1;ratioP1;P1;durP2;ratioP2;P2;SDS_P1;SDS_P2;PMS_P1;PMS_P2;Temp;Humidity;BMP_temperature;BMP_pressure;BME280_temperature;BME280_humidity;BME280_pressure;Samples;Min_cycle;Max_cycle;Signal;HPM_P1;HPM_P2
2022/11/14 00:01:52;;;;;;;4.35;3.08;;;19.20;73.80;;;;;;6152523;23;45382;-67
2022/11/14 00:04:18;;;;;;;4.00;2.78;;;19.20;74.30;;;;;;6152562;23;45340;-67
2022/11/14 00:06:54;;;;;;;5.35;2.85;;;19.20;73.70;;;;;;6152644;23;45289;-68
2022/11/14 00:09:26;;;;;;;4.20;2.60;;;19.20;73.50;;;;;;6152366;23;47495;-67
2022/11/14 00:11:53;;;;;;;4.63;2.90;;;19.20;73.20;;;;;;6151977;23;45474;-67
2022/11/14 00:14:20;;;;;;;3.30;2.50;;;19.20;73.10;;;;;;6152507;23;45269;-67
2022/11/14 00:16:47;;;;;;;5.50;3.10;;;19.20;73.10;;;;;;6152034;23;45420;-67
2022/11/14 00:19:14;;;;;;;3.90;2.70;;;19.20;72.80;;;;;;6152175;23;47510;-67
2022/11/14 00:21:40;;;;;;;4.53;2.67;;;19.20;72.60;;;;;;6152515;23;45451;-67
2022/11/14 00:24:07;;;;;;;4.60;2.78;;;19.20;72.40;;;;;;6152882;23;45216;-67
2022/11/14 00:26:36;;;;;;;4.65;3.25;;;19.20;72.20;;;;;;6152928;23;45246;-67
2022/11/14 00:29:03;;;;;;;3.30;2.40;;;19.20;72.10;;;;;;6150544;23;45366;-67
2022/11/14 00:31:30;;;;;;;3.28;2.40;;;19.20;71.80;;;;;;6152364;23;45407;-67
2022/11/14 00:33:56;;;;;;;4.38;2.53;;;19.20;71.80;;;;;;6152507;23;45625;-68
2022/11/14 00:36:23;;;;;;;2.90;2.13;;;19.20;71.60;;;;;;6152503;23;45436;-68
2022/11/14 00:38:52;;;;;;;3.13;2.55;;;19.20;71.60;;;;;;6151812;23;46334;-67
2022/11/14 00:41:19;;;;;;;4.63;2.65;;;19.20;72.30;;;;;;6152573;23;46645;-67
2022/11/14 00:43:47;;;;;;;3.65;2.53;;;19.20;72.50;;;;;;6152935;23;45316;-67
2022/11/14 00:46:14;;;;;;;4.22;2.80;;;19.20;72.60;;;;;;6152609;23;45372;-68
2022/11/14 00:48:41;;;;;;;4.75;2.90;;;19.20;72.60;;;;;;6151476;23;47520;-67
2022/11/14 00:51:11;;;;;;;3.83;2.60;;;19.20;72.60;;;;;;6151808;23;45255;-67
2022/11/14 00:53:37;;;;;;;5.22;2.92;;;19.20;72.80;;;;;;6153199;23;45449;-67
2022/11/14 00:56:05;;;;;;;4.93;2.80;;;19.20;72.70;;;;;;6152928;23;45262;-67
2022/11/14 00:58:32;;;;;;;3.67;2.40;;;19.20;72.60;;;;;;6151116;23;47481;-67
2022/11/14 01:01:00;;;;;;;4.28;2.75;;;19.20;72.80;;;;;;6152567;23;45226;-67
2022/11/14 01:03:27;;;;;;;4.97;3.00;;;19.20;72.40;;;;;;6151989;23;45308;-67
2022/11/14 01:05:53;;;;;;;3.95;2.70;;;19.20;72.90;;;;;;6152620;23;45219;-67
2022/11/14 01:08:20;;;;;;;4.03;2.50;;;19.20;72.20;;;;;;6151629;23;46104;-67
2022/11/14 01:10:49;;;;;;;4.80;2.60;;;19.20;72.90;;;;;;6152652;23;45269;-67
2022/11/14 01:13:17;;;;;;;4.00;2.75;;;19.20;71.70;;;;;;6152663;23;45305;-67
2022/11/14 01:15:46;;;;;;;3.97;2.80;;;19.20;71.80;;;;;;6151696;23;45500;-67
2022/11/14 01:18:17;;;;;;;3.65;2.65;;;19.20;72.50;;;;;;6152173;23;47065;-67
2022/11/14 01:20:46;;;;;;;4.25;2.70;;;19.20;71.30;;;;;;6152235;23;45323;-68
2022/11/14 01:23:15;;;;;;;4.60;2.75;;;19.20;71.00;;;;;;6152859;23;45248;-67
2022/11/14 01:25:43;;;;;;;3.47;2.50;;;19.20;70.90;;;;;;6151821;23;45301;-67
2022/11/14 01:28:12;;;;;;;4.22;2.60;;;19.20;70.70;;;;;;6151263;23;47186;-68
2022/11/14 01:30:39;;;;;;;4.07;2.67;;;19.20;70.60;;;;;;6151206;23;45285;-67
2022/11/14 01:33:07;;;;;;;3.38;2.13;;;19.20;70.50;;;;;;6151916;23;45270;-67
2022/11/14 01:35:37;;;;;;;4.15;2.60;;;19.20;70.20;;;;;;6152713;23;45354;-67
2022/11/14 01:38:05;;;;;;;5.03;2.80;;;19.20;70.10;;;;;;6152361;23;46269;-67
2022/11/14 01:40:33;;;;;;;4.25;2.42;;;19.20;70.30;;;;;;6151992;23;45426;-68
2022/11/14 01:43:25;;;;;;;4.20;2.20;;;19.20;70.80;;;;;;6152092;23;45305;-68
2022/11/14 01:45:55;;;;;;;3.60;2.47;;;19.20;71.40;;;;;;6152755;23;45409;-67
2022/11/14 01:48:26;;;;;;;2.70;2.08;;;19.20;71.50;;;;;;6151531;23;46601;-68
2022/11/14 01:50:58;;;;;;;3.17;2.33;;;19.20;71.50;;;;;;6152296;23;45429;-67
2022/11/14 01:53:26;;;;;;;3.40;2.38;;;19.20;71.40;;;;;;6152890;23;45391;-67
2022/11/14 01:55:55;;;;;;;3.28;2.50;;;19.20;71.00;;;;;;6151760;23;45340;-67
2022/11/14 01:58:23;;;;;;;3.28;2.20;;;19.20;71.30;;;;;;6151200;23;47272;-67
2022/11/14 02:00:50;;;;;;;2.80;2.17;;;19.20;71.40;;;;;;6151243;23;46059;-67
2022/11/14 02:03:17;;;;;;;3.72;2.35;;;19.20;71.30;;;;;;6152522;23;45332;-67
2022/11/14 02:05:46;;;;;;;3.75;2.35;;;19.20;71.00;;;;;;6152028;23;45373;-67
2022/11/14 02:08:16;;;;;;;3.75;2.50;;;19.20;71.00;;;;;;6124751;23;48024;-67
2022/11/14 02:10:43;;;;;;;4.53;2.63;;;19.20;70.70;;;;;;6152297;23;45295;-67
2022/11/14 02:13:10;;;;;;;3.55;2.10;;;19.20;70.40;;;;;;6152105;23;45245;-67
2022/11/14 02:15:37;;;;;;;4.20;2.40;;;19.20;70.10;;;;;;6152170;23;45357;-67
2022/11/14 02:18:04;;;;;;;2.83;1.83;;;19.20;69.90;;;;;;6151523;23;46559;-67
2022/11/14 02:20:35;;;;;;;2.35;1.90;;;19.10;69.80;;;;;;6150969;23;45363;-67
2022/11/14 02:23:02;;;;;;;2.60;1.77;;;19.10;69.80;;;;;;6152029;23;45270;-67
2022/11/14 02:25:29;;;;;;;3.20;2.20;;;19.20;69.40;;;;;;6152072;23;45427;-67
2022/11/14 02:27:58;;;;;;;3.45;2.30;;;19.10;68.80;;;;;;6151975;23;45266;-67
2022/11/14 02:30:25;;;;;;;3.50;2.00;;;19.20;69.10;;;;;;6149466;23;45301;-67
2022/11/14 02:32:52;;;;;;;3.03;2.10;;;19.10;68.90;;;;;;6151893;23;45323;-67
2022/11/14 02:35:23;;;;;;;2.90;2.15;;;19.10;68.50;;;;;;6151255;23;45456;-67
2022/11/14 02:37:52;;;;;;;3.85;2.20;;;19.10;68.60;;;;;;6152244;23;46548;-68
2022/11/14 02:40:18;;;;;;;3.60;2.30;;;19.10;69.20;;;;;;6151185;23;45202;-67
2022/11/14 02:42:45;;;;;;;3.67;2.50;;;19.10;69.40;;;;;;6153329;23;45199;-67
2022/11/14 02:45:13;;;;;;;3.85;2.28;;;19.20;69.60;;;;;;6153724;23;45273;-67
2022/11/14 02:47:39;;;;;;;3.40;2.35;;;19.10;69.80;;;;;;6153078;23;47129;-67
2022/11/14 02:50:07;;;;;;;2.78;2.08;;;19.10;69.70;;;;;;6152665;23;45340;-67
2022/11/14 02:52:33;;;;;;;3.13;2.03;;;19.10;69.40;;;;;;6152970;23;45319;-67
2022/11/14 02:55:02;;;;;;;3.25;2.17;;;19.10;69.60;;;;;;6153590;23;45181;-67
2022/11/14 02:57:28;;;;;;;3.22;2.08;;;19.10;69.80;;;;;;6152800;23;47150;-67
2022/11/14 02:59:55;;;;;;;2.10;1.90;;;19.20;69.40;;;;;;6152298;23;46132;-67
2022/11/14 03:02:22;;;;;;;3.33;1.98;;;19.10;70.00;;;;;;6153152;23;45345;-67
2022/11/14 03:04:49;;;;;;;2.80;2.20;;;19.20;69.90;;;;;;6152825;23;45276;-67
2022/11/14 03:07:15;;;;;;;2.97;2.25;;;19.20;69.70;;;;;;6153009;23;46448;-67
2022/11/14 03:09:42;;;;;;;5.00;2.42;;;19.10;69.00;;;;;;6152144;23;45309;-67
2022/11/14 03:12:11;;;;;;;2.63;1.95;;;19.10;68.90;;;;;;6153059;23;45314;-67
2022/11/14 03:14:38;;;;;;;2.92;2.13;;;19.10;68.60;;;;;;6152922;23;45222;-67
2022/11/14 03:17:04;;;;;;;2.80;2.10;;;19.10;68.60;;;;;;6152781;23;46700;-67
2022/11/14 03:19:31;;;;;;;4.15;2.40;;;19.10;68.20;;;;;;6152944;23;45253;-67
2022/11/14 03:21:58;;;;;;;2.83;1.90;;;19.10;67.90;;;;;;6152724;23;45265;-67
2022/11/14 03:24:25;;;;;;;4.47;2.10;;;19.10;68.00;;;;;;6153029;23;45339;-67
2022/11/14 03:26:51;;;;;;;2.95;2.00;;;19.10;67.60;;;;;;6152207;23;47526;-66
2022/11/14 03:29:20;;;;;;;3.15;2.00;;;19.10;67.30;;;;;;6150185;23;45266;-67
2022/11/14 03:31:47;;;;;;;2.97;2.10;;;19.10;67.30;;;;;;6152357;23;45348;-67
2022/11/14 03:34:13;;;;;;;3.00;2.03;;;19.10;67.00;;;;;;6153135;23;45551;-66
2022/11/14 03:36:40;;;;;;;3.58;2.20;;;19.10;66.80;;;;;;6152618;23;46579;-67
2022/11/14 03:39:08;;;;;;;2.65;1.90;;;19.10;67.70;;;;;;6152272;23;45264;-67
2022/11/14 03:41:34;;;;;;;2.67;1.95;;;19.10;68.00;;;;;;6152946;23;45219;-68
2022/11/14 03:44:01;;;;;;;2.80;2.13;;;19.10;68.20;;;;;;6152600;23;45382;-67
2022/11/14 03:46:29;;;;;;;3.42;2.22;;;19.10;68.30;;;;;;6152635;23;45465;-67
2022/11/14 03:48:56;;;;;;;3.10;1.92;;;19.10;68.50;;;;;;6151831;23;45871;-67
2022/11/14 03:51:23;;;;;;;2.63;2.03;;;19.10;68.80;;;;;;6152673;23;45197;-67
2022/11/14 03:53:50;;;;;;;2.15;1.70;;;19.10;68.60;;;;;;6153172;23;45298;-67
2022/11/14 03:56:17;;;;;;;2.58;1.90;;;19.10;68.60;;;;;;6152689;23;45594;-67
2022/11/14 03:58:43;;;;;;;3.17;2.10;;;19.10;68.10;;;;;;6151437;23;45657;-68
2022/11/14 04:01:10;;;;;;;3.42;1.88;;;19.10;68.60;;;;;;6152158;23;45290;-67
2022/11/14 04:03:38;;;;;;;3.75;2.25;;;19.10;68.50;;;;;;6153101;23;45158;-67
2022/11/14 04:06:05;;;;;;;2.58;1.83;;;19.10;68.20;;;;;;6151895;23;46370;-67
2022/11/14 04:08:32;;;;;;;2.10;1.60;;;19.10;68.40;;;;;;6151022;23;46097;-67
2022/11/14 04:10:59;;;;;;;2.65;1.80;;;19.10;67.60;;;;;;6152998;23;45278;-68
2022/11/14 04:13:26;;;;;;;2.38;1.80;;;19.10;67.50;;;;;;6152532;23;45415;-67
2022/11/14 04:15:56;;;;;;;3.10;1.80;;;19.10;67.30;;;;;;6152247;23;47077;-67
2022/11/14 04:18:23;;;;;;;3.35;2.10;;;19.10;67.10;;;;;;6151976;23;45313;-67
2022/11/14 04:20:51;;;;;;;2.70;1.90;;;19.10;67.50;;;;;;6152647;23;45260;-67
2022/11/14 04:23:19;;;;;;;2.83;1.80;;;19.10;67.50;;;;;;6152894;23;45365;-67
2022/11/14 04:25:47;;;;;;;4.00;2.10;;;19.10;66.40;;;;;;6151433;23;45309;-67
2022/11/14 04:28:14;;;;;;;2.28;1.67;;;19.10;66.40;;;;;;6152710;23;45261;-67
2022/11/14 04:30:43;;;;;;;3.28;2.05;;;19.10;66.10;;;;;;6150295;23;45456;-68
2022/11/14 04:33:11;;;;;;;2.28;1.77;;;19.10;65.90;;;;;;6153208;23;45493;-67
2022/11/14 04:35:38;;;;;;;2.13;1.60;;;19.10;65.90;;;;;;6152098;23;47488;-67
2022/11/14 04:38:06;;;;;;;2.83;1.98;;;19.10;66.30;;;;;;6152814;23;45309;-67
2022/11/14 04:40:33;;;;;;;2.90;1.77;;;19.10;66.60;;;;;;6151491;23;45253;-67
2022/11/14 04:43:00;;;;;;;2.30;1.75;;;19.10;66.70;;;;;;6152705;23;45291;-67
2022/11/14 04:45:27;;;;;;;2.30;1.70;;;19.10;67.00;;;;;;6151484;23;46391;-67
2022/11/14 04:47:54;;;;;;;2.72;1.80;;;19.10;67.30;;;;;;6152165;23;45451;-67
2022/11/14 04:50:20;;;;;;;3.28;1.95;;;19.10;67.30;;;;;;6151652;23;45326;-67
2022/11/14 04:52:50;;;;;;;2.80;1.80;;;19.10;67.30;;;;;;6152501;23;45269;-67
2022/11/14 04:55:18;;;;;;;2.22;1.50;;;19.10;67.20;;;;;;6152059;23;46298;-67
2022/11/14 04:57:46;;;;;;;1.60;1.50;;;19.10;67.20;;;;;;6151311;23;45693;-67
2022/11/14 05:00:14;;;;;;;3.30;1.83;;;19.10;67.40;;;;;;6150647;23;45339;-67
2022/11/14 05:02:40;;;;;;;2.10;1.58;;;19.10;67.30;;;;;;6151648;23;45149;-67
2022/11/14 05:05:08;;;;;;;2.55;1.80;;;19.10;67.00;;;;;;6149989;23;48451;-67
2022/11/14 05:07:35;;;;;;;2.15;1.60;;;19.10;66.90;;;;;;6151921;23;45338;-67
2022/11/14 05:10:01;;;;;;;1.90;1.65;;;19.10;66.50;;;;;;6151306;23;45350;-67
2022/11/14 05:12:30;;;;;;;2.20;1.50;;;19.10;66.60;;;;;;6152419;23;45258;-67
2022/11/14 05:14:56;;;;;;;2.58;1.60;;;19.10;65.70;;;;;;6151859;23;47067;-67
2022/11/14 05:17:23;;;;;;;2.53;1.63;;;19.10;66.10;;;;;;6151843;23;45359;-67
2022/11/14 05:19:50;;;;;;;2.50;1.83;;;19.10;65.70;;;;;;6150953;23;45313;-67
2022/11/14 05:22:17;;;;;;;2.47;1.70;;;19.00;65.30;;;;;;6152196;23;45277;-67
2022/11/14 05:24:44;;;;;;;2.88;1.73;;;19.00;65.40;;;;;;6152528;23;45379;-67
2022/11/14 05:27:10;;;;;;;3.08;1.75;;;19.00;65.00;;;;;;6151615;23;45336;-67
2022/11/14 05:29:38;;;;;;;2.42;1.40;;;19.00;64.90;;;;;;6149513;23;45438;-67
2022/11/14 05:32:05;;;;;;;2.63;1.80;;;19.00;64.90;;;;;;6151818;23;45285;-67
2022/11/14 05:34:32;;;;;;;2.50;1.58;;;19.00;64.80;;;;;;6151675;23;47512;-67
2022/11/14 05:36:59;;;;;;;3.13;1.60;;;19.00;65.00;;;;;;6151990;23;45249;-67
2022/11/14 05:39:25;;;;;;;2.90;1.88;;;19.00;65.40;;;;;;6150834;23;45285;-67
2022/11/14 05:41:52;;;;;;;2.03;1.67;;;19.00;66.10;;;;;;6151327;23;45583;-67
2022/11/14 05:44:19;;;;;;;2.47;1.58;;;19.00;66.10;;;;;;6151234;23;47102;-67
2022/11/14 05:46:47;;;;;;;2.42;1.52;;;19.10;66.30;;;;;;6151619;23;45365;-67
2022/11/14 05:49:13;;;;;;;3.00;1.80;;;19.10;66.10;;;;;;6151363;23;45406;-67
2022/11/14 05:51:41;;;;;;;2.72;2.13;;;19.10;66.40;;;;;;6151848;23;45182;-67
2022/11/14 05:54:08;;;;;;;2.13;1.60;;;19.10;66.10;;;;;;6152114;23;45389;-67
2022/11/14 05:56:34;;;;;;;1.95;1.60;;;19.10;66.20;;;;;;6149906;23;45273;-66
2022/11/14 05:59:01;;;;;;;1.83;1.50;;;19.10;66.40;;;;;;6150487;23;45325;-68
2022/11/14 06:01:28;;;;;;;1.85;1.60;;;19.10;66.50;;;;;;6150785;23;45223;-67
2022/11/14 06:03:56;;;;;;;2.47;1.67;;;19.10;66.40;;;;;;6151010;23;48117;-66
2022/11/14 06:06:23;;;;;;;2.42;1.67;;;19.10;66.10;;;;;;6150166;23;45495;-67
2022/11/14 06:08:50;;;;;;;2.58;1.70;;;19.10;65.90;;;;;;6150187;23;45338;-68
2022/11/14 06:11:19;;;;;;;3.00;1.80;;;19.00;65.20;;;;;;6152371;23;45527;-67
2022/11/14 06:13:46;;;;;;;1.73;1.25;;;19.00;65.30;;;;;;6150041;23;47924;-67
2022/11/14 06:16:14;;;;;;;2.80;1.55;;;19.00;65.20;;;;;;6150403;23;45395;-67
2022/11/14 06:18:41;;;;;;;2.22;1.70;;;19.10;64.70;;;;;;6151419;23;45372;-67
2022/11/14 06:21:13;;;;;;;2.45;1.58;;;19.00;65.00;;;;;;6152289;23;45307;-67
2022/11/14 06:23:40;;;;;;;1.73;1.40;;;19.00;65.40;;;;;;6152622;23;47237;-67
2022/11/14 06:26:12;;;;;;;3.22;1.77;;;19.00;65.20;;;;;;6152177;23;45273;-67
2022/11/14 06:28:39;;;;;;;2.22;1.63;;;19.00;65.20;;;;;;6149212;23;45356;-67
2022/11/14 06:31:06;;;;;;;1.77;1.42;;;19.00;65.00;;;;;;6150566;23;45438;-67
2022/11/14 06:33:35;;;;;;;2.60;1.75;;;19.00;65.00;;;;;;6151745;23;47255;-67
2022/11/14 06:36:04;;;;;;;2.40;1.50;;;19.00;65.30;;;;;;6151333;23;45374;-67
2022/11/14 06:38:33;;;;;;;2.33;1.58;;;19.00;65.80;;;;;;6151385;23;45341;-67
2022/11/14 06:41:03;;;;;;;2.13;1.50;;;19.00;65.80;;;;;;6151488;23;45396;-67
2022/11/14 06:43:33;;;;;;;2.45;1.60;;;19.00;66.10;;;;;;6151050;23;46409;-66
2022/11/14 06:45:59;;;;;;;2.63;1.95;;;19.00;66.00;;;;;;6152070;23;45230;-66
2022/11/14 06:48:26;;;;;;;2.30;1.63;;;19.00;65.90;;;;;;6151517;23;45262;-67
2022/11/14 06:50:53;;;;;;;2.75;1.85;;;19.00;65.90;;;;;;6151603;23;45264;-67
2022/11/14 06:53:20;;;;;;;2.15;1.73;;;19.00;65.70;;;;;;6152149;23;45406;-66
2022/11/14 06:55:55;;;;;;;2.85;1.80;;;19.00;65.60;;;;;;6151363;23;45303;-67
2022/11/14 06:58:22;;;;;;;2.50;1.90;;;19.00;65.90;;;;;;6152524;23;45308;-67
2022/11/14 07:00:49;;;;;;;1.88;1.60;;;19.00;65.80;;;;;;6151319;23;45390;-67
2022/11/14 07:03:15;;;;;;;2.22;1.63;;;19.00;65.20;;;;;;6151889;23;47505;-67
2022/11/14 07:05:42;;;;;;;2.00;1.70;;;19.00;65.20;;;;;;6150438;23;45262;-67
2022/11/14 07:08:09;;;;;;;2.15;1.80;;;19.00;65.20;;;;;;6150432;23;45298;-66
2022/11/14 07:10:35;;;;;;;2.97;1.77;;;19.00;64.90;;;;;;6151129;23;45504;-67
2022/11/14 07:13:04;;;;;;;2.55;1.70;;;19.00;65.00;;;;;;6150501;23;46578;-66
2022/11/14 07:15:31;;;;;;;2.05;1.63;;;19.00;64.70;;;;;;6151638;23;45192;-67
2022/11/14 07:17:58;;;;;;;2.88;1.88;;;19.00;64.30;;;;;;6152432;23;45331;-67
2022/11/14 07:20:25;;;;;;;3.38;1.90;;;18.90;64.30;;;;;;6149829;23;45418;-67
2022/11/14 07:22:52;;;;;;;2.47;1.65;;;19.00;64.40;;;;;;6151528;23;48160;-67
2022/11/14 07:25:19;;;;;;;2.60;1.85;;;19.00;64.50;;;;;;6150850;23;45347;-67
2022/11/14 07:27:46;;;;;;;2.30;1.70;;;19.00;64.40;;;;;;6151400;23;45158;-67
2022/11/14 07:30:15;;;;;;;2.65;1.85;;;19.00;64.20;;;;;;6151161;23;45363;-67
2022/11/14 07:32:42;;;;;;;2.10;1.73;;;19.00;64.30;;;;;;6152455;23;45421;-67
2022/11/14 07:35:09;;;;;;;2.70;2.00;;;19.00;64.60;;;;;;6151076;23;45825;-67
2022/11/14 07:37:36;;;;;;;2.47;1.73;;;19.00;65.00;;;;;;6152445;23;45214;-67
2022/11/14 07:40:02;;;;;;;2.63;1.77;;;19.00;65.20;;;;;;6151986;23;45181;-67
2022/11/14 07:42:29;;;;;;;3.42;2.00;;;19.00;65.20;;;;;;6150948;23;46551;-68
2022/11/14 07:44:56;;;;;;;2.88;2.10;;;19.00;65.10;;;;;;6151327;23;45276;-67
2022/11/14 07:47:24;;;;;;;3.42;2.05;;;19.00;65.60;;;;;;6152104;23;45410;-67
2022/11/14 07:49:51;;;;;;;3.53;2.20;;;19.00;65.50;;;;;;6151226;23;45211;-67
2022/11/14 07:52:18;;;;;;;3.45;2.35;;;19.00;65.40;;;;;;6152188;23;45289;-67
2022/11/14 07:54:44;;;;;;;3.08;2.20;;;18.90;63.60;;;;;;6151710;23;45297;-67
2022/11/14 07:57:11;;;;;;;3.15;2.10;;;18.90;62.90;;;;;;6151923;23;45337;-67
2022/11/14 07:59:38;;;;;;;2.80;2.10;;;19.00;63.00;;;;;;6150564;23;45382;-67
2022/11/14 08:02:05;;;;;;;4.63;2.60;;;19.00;62.70;;;;;;6150009;23;45305;-67
2022/11/14 08:04:33;;;;;;;3.10;2.35;;;19.00;61.90;;;;;;6152182;23;45375;-67
2022/11/14 08:06:59;;;;;;;4.57;2.57;;;19.00;61.50;;;;;;6149562;23;45455;-67
2022/11/14 08:09:26;;;;;;;4.85;3.05;;;18.90;61.30;;;;;;6151341;23;45511;-67
2022/11/14 08:11:53;;;;;;;2.97;2.40;;;18.90;61.20;;;;;;6150032;23;48055;-67
2022/11/14 08:14:19;;;;;;;4.18;2.60;;;18.90;61.10;;;;;;6151204;23;45260;-67
2022/11/14 08:16:46;;;;;;;4.05;2.80;;;18.90;60.90;;;;;;6152159;23;45261;-67
2022/11/14 08:19:15;;;;;;;5.00;3.05;;;18.90;60.80;;;;;;6150292;23;45523;-68
2022/11/14 08:21:43;;;;;;;5.55;3.35;;;18.90;61.00;;;;;;6151643;23;45587;-67
2022/11/14 08:24:10;;;;;;;4.90;3.30;;;18.80;61.00;;;;;;6151082;23;45220;-68
2022/11/14 08:26:38;;;;;;;6.55;3.33;;;18.80;61.00;;;;;;6150797;23;45276;-68
2022/11/14 08:29:05;;;;;;;4.90;3.30;;;18.80;61.20;;;;;;6151380;23;45226;-68
2022/11/14 08:31:32;;;;;;;6.82;3.67;;;18.80;61.20;;;;;;6150306;23;48417;-68
2022/11/14 08:33:58;;;;;;;3.85;2.95;;;18.80;61.10;;;;;;6150949;23;45370;-67
2022/11/14 08:36:26;;;;;;;4.20;2.85;;;18.80;61.80;;;;;;6149970;23;45324;-68
2022/11/14 08:38:54;;;;;;;4.50;3.10;;;18.80;62.80;;;;;;6151530;23;45649;-67
2022/11/14 08:41:21;;;;;;;3.95;2.58;;;18.90;63.80;;;;;;6150958;23;45396;-67
2022/11/14 08:43:48;;;;;;;4.15;3.00;;;18.90;63.10;;;;;;6151062;23;45318;-67
2022/11/14 08:46:15;;;;;;;4.38;3.10;;;18.90;63.20;;;;;;6151698;23;45457;-67
2022/11/14 08:48:41;;;;;;;5.00;3.03;;;18.90;63.90;;;;;;6151318;23;45261;-67
2022/11/14 08:51:08;;;;;;;4.00;3.00;;;19.00;63.80;;;;;;6151009;23;45381;-67
2022/11/14 08:53:35;;;;;;;4.35;2.92;;;18.90;63.90;;;;;;6150416;23;45505;-67
2022/11/14 08:56:03;;;;;;;5.30;3.03;;;19.00;64.20;;;;;;6150056;23;45492;-67
2022/11/14 08:58:31;;;;;;;6.03;3.22;;;19.00;64.30;;;;;;6151813;23;45299;-68
2022/11/14 09:01:02;;;;;;;5.10;3.13;;;19.00;64.30;;;;;;6150129;23;46575;-67
2022/11/14 09:03:29;;;;;;;4.32;2.70;;;19.00;64.40;;;;;;6152412;23;45193;-67
2022/11/14 09:05:55;;;;;;;4.25;2.72;;;19.00;64.40;;;;;;6151018;23;45435;-67
2022/11/14 09:08:23;;;;;;;5.60;2.92;;;19.00;64.30;;;;;;6152180;23;45245;-67
2022/11/14 09:10:50;;;;;;;4.47;3.13;;;19.00;64.10;;;;;;6148475;23;46458;-67
2022/11/14 09:13:18;;;;;;;4.78;3.25;;;19.00;64.50;;;;;;6150151;23;45250;-68
2022/11/14 09:15:45;;;;;;;5.15;2.97;;;19.00;64.50;;;;;;6150870;23;45312;-68
2022/11/14 09:18:12;;;;;;;4.18;2.90;;;19.00;64.70;;;;;;6151344;23;45274;-68
2022/11/14 09:20:39;;;;;;;6.10;2.95;;;19.00;64.90;;;;;;6150250;23;48529;-68
2022/11/14 09:23:06;;;;;;;3.70;2.45;;;19.00;65.30;;;;;;6150599;23;45347;-68
2022/11/14 09:25:33;;;;;;;5.72;3.42;;;19.00;65.20;;;;;;6151066;23;45289;-68
2022/11/14 09:28:04;;;;;;;4.53;3.00;;;19.00;65.20;;;;;;6150906;23;45246;-68
2022/11/14 09:30:34;;;;;;;2.72;2.35;;;19.00;65.40;;;;;;6148534;23;45325;-69
2022/11/14 09:33:01;;;;;;;3.67;2.60;;;19.00;65.30;;;;;;6148064;23;45400;-68
2022/11/14 09:35:28;;;;;;;4.90;3.13;;;19.00;65.50;;;;;;6149439;23;45346;-68
2022/11/14 09:38:01;;;;;;;5.75;3.60;;;19.00;65.60;;;;;;6151804;23;45207;-68
2022/11/14 09:40:29;;;;;;;4.88;2.67;;;19.00;65.50;;;;;;6149808;23;46576;-68
2022/11/14 09:43:13;;;;;;;4.80;2.85;;;19.00;65.60;;;;;;6151591;23;45197;-68
2022/11/14 09:45:48;;;;;;;3.90;2.55;;;19.00;65.60;;;;;;6151578;23;45296;-68
2022/11/14 09:48:17;;;;;;;5.82;2.92;;;19.00;65.60;;;;;;6153372;23;45146;-68
2022/11/14 09:50:48;;;;;;;3.92;2.58;;;19.00;65.60;;;;;;6150270;23;46920;-68
2022/11/14 09:53:25;;;;;;;5.07;3.28;;;19.10;65.70;;;;;;6151491;23;45210;-68
2022/11/14 09:55:52;;;;;;;5.40;3.30;;;19.10;65.70;;;;;;6152858;23;45294;-68
2022/11/14 09:58:20;;;;;;;3.38;2.80;;;19.10;65.80;;;;;;6152894;23;45465;-68
2022/11/14 10:00:54;;;;;;;3.90;2.22;;;19.10;65.70;;;;;;6150270;23;48045;-68
2022/11/14 10:03:31;;;;;;;3.35;2.50;;;19.10;65.90;;;;;;6146632;23;45455;-68
2022/11/14 10:06:22;;;;;;;4.60;2.95;;;19.00;65.70;;;;;;6151230;23;45201;-69
2022/11/14 10:09:01;;;;;;;4.65;2.88;;;19.10;65.90;;;;;;6151303;23;45326;-68
2022/11/14 10:11:35;;;;;;;3.80;2.80;;;19.10;65.90;;;;;;6152762;23;48060;-69
2022/11/14 10:14:41;;;;;;;4.40;2.88;;;19.10;66.00;;;;;;6152711;23;45242;-68
2022/11/14 10:17:22;;;;;;;3.75;2.67;;;19.00;66.00;;;;;;6152477;23;45269;-68
2022/11/14 10:19:59;;;;;;;3.67;2.40;;;19.10;65.90;;;;;;6150961;23;45480;-68
2022/11/14 10:22:42;;;;;;;4.13;2.63;;;19.10;66.10;;;;;;6150390;23;47062;-68
2022/11/14 10:25:24;;;;;;;3.85;2.50;;;19.10;66.10;;;;;;6152299;23;45358;-68
2022/11/14 10:28:05;;;;;;;3.17;2.30;;;19.10;66.00;;;;;;6152007;23;45242;-69
2022/11/14 10:30:40;;;;;;;3.83;2.60;;;19.10;66.00;;;;;;6150984;23;45420;-68
2022/11/14 10:33:23;;;;;;;4.07;2.53;;;19.10;66.00;;;;;;6151010;23;48302;-68
2022/11/14 10:35:57;;;;;;;4.68;2.67;;;19.10;66.00;;;;;;6149591;23;45238;-68
2022/11/14 10:38:29;;;;;;;4.28;2.90;;;19.10;65.90;;;;;;6151465;23;45228;-68
2022/11/14 10:41:00;;;;;;;4.45;2.78;;;19.10;66.00;;;;;;6151829;23;45416;-68
2022/11/14 10:43:33;;;;;;;3.67;2.45;;;19.10;66.00;;;;;;6151404;23;45389;-68
2022/11/14 10:46:03;;;;;;;3.22;2.33;;;19.10;66.10;;;;;;6152130;23;45241;-68
2022/11/14 10:48:34;;;;;;;5.25;2.97;;;19.20;66.20;;;;;;6152593;23;45247;-69
2022/11/14 10:51:06;;;;;;;3.83;2.45;;;19.20;66.10;;;;;;6151278;23;45359;-68
2022/11/14 10:53:43;;;;;;;3.65;2.58;;;19.10;66.10;;;;;;6152278;23;46479;-69
2022/11/14 10:56:12;;;;;;;3.47;2.35;;;19.10;66.10;;;;;;6151649;23;45800;-68
2022/11/14 10:58:39;;;;;;;3.05;2.25;;;19.10;66.20;;;;;;6151838;23;45394;-68
2022/11/14 11:01:35;;;;;;;3.35;2.60;;;19.10;66.30;;;;;;6151149;23;45393;-69
2022/11/14 11:04:19;;;;;;;4.90;2.78;;;19.10;66.00;;;;;;6152776;23;47118;-68
2022/11/14 11:06:46;;;;;;;3.97;2.50;;;19.10;66.30;;;;;;6152926;23;45233;-68
2022/11/14 11:12:02;;;;;;;4.25;2.42;;;19.10;66.20;;;;;;6152490;23;45341;-68
2022/11/14 11:14:29;;;;;;;3.00;2.30;;;19.10;66.20;;;;;;6151047;23;45436;-68
2022/11/14 11:17:23;;;;;;;4.53;2.63;;;19.20;66.10;;;;;;6152470;23;45332;-68
2022/11/14 11:19:51;;;;;;;3.83;2.22;;;19.10;66.30;;;;;;6152305;23;45220;-68
2022/11/14 11:22:37;;;;;;;3.47;2.40;;;19.10;66.20;;;;;;6151312;23;45512;-69
2022/11/14 11:25:23;;;;;;;2.65;2.05;;;19.10;66.20;;;;;;6150751;23;45277;-68
2022/11/14 11:28:05;;;;;;;2.90;2.30;;;19.20;66.20;;;;;;6151876;23;45663;-68
2022/11/14 11:30:32;;;;;;;3.40;2.38;;;19.10;66.20;;;;;;6149813;23;45274;-68
2022/11/14 11:33:15;;;;;;;3.92;2.28;;;19.10;66.10;;;;;;6152372;23;45324;-68
2022/11/14 11:35:46;;;;;;;3.15;2.53;;;19.20;65.90;;;;;;6149175;23;46548;-68
2022/11/14 11:38:16;;;;;;;2.80;2.10;;;19.20;66.00;;;;;;6150802;23;45202;-69
2022/11/14 11:40:44;;;;;;;3.38;2.42;;;19.20;66.20;;;;;;6151217;23;45369;-68
2022/11/14 11:43:16;;;;;;;3.38;2.10;;;19.20;66.10;;;;;;6151419;23;45275;-68
2022/11/14 11:45:45;;;;;;;3.67;2.30;;;19.20;66.10;;;;;;6151672;23;47084;-68
2022/11/14 11:48:17;;;;;;;3.53;2.30;;;19.20;66.10;;;;;;6151247;23;45702;-68
2022/11/14 11:50:45;;;;;;;3.13;2.30;;;19.20;66.20;;;;;;6151598;23;45303;-68
2022/11/14 11:53:18;;;;;;;3.15;2.40;;;19.20;66.30;;;;;;6152082;23;45380;-68
2022/11/14 11:55:48;;;;;;;3.00;2.08;;;19.20;66.40;;;;;;6150805;23;46280;-66
2022/11/14 11:58:22;;;;;;;3.90;2.40;;;19.20;66.60;;;;;;6152443;23;45339;-68
2022/11/14 12:00:53;;;;;;;3.22;2.10;;;19.20;66.50;;;;;;6151051;23;45230;-67
2022/11/14 12:03:21;;;;;;;3.33;2.15;;;19.20;66.40;;;;;;6151500;23;45217;-67
2022/11/14 12:05:58;;;;;;;2.47;2.00;;;19.20;66.30;;;;;;6151218;23;46383;-67
2022/11/14 12:08:32;;;;;;;2.78;2.05;;;19.20;66.40;;;;;;6152167;23;45225;-67
2022/11/14 12:11:01;;;;;;;2.35;1.80;;;19.20;66.40;;;;;;6151248;23;45242;-67
2022/11/14 12:14:09;;;;;;;4.00;2.60;;;19.20;66.40;;;;;;6150589;23;45443;-67
2022/11/14 12:17:06;;;;;;;4.50;2.65;;;19.20;66.50;;;;;;6151626;23;45326;-67
2022/11/14 12:19:57;;;;;;;3.55;2.50;;;19.20;66.60;;;;;;6151144;23;45295;-67
2022/11/14 12:22:42;;;;;;;3.35;2.28;;;19.20;66.70;;;;;;6152101;23;45386;-67
2022/11/14 12:25:26;;;;;;;3.60;2.28;;;19.20;66.70;;;;;;6151184;23;45315;-68
2022/11/14 12:28:10;;;;;;;3.53;2.30;;;19.20;66.70;;;;;;6151922;23;47239;-67
2022/11/14 12:30:40;;;;;;;3.60;2.33;;;19.20;66.60;;;;;;6149983;23;45277;-67
2022/11/14 12:33:11;;;;;;;2.83;2.35;;;19.20;66.80;;;;;;6151091;23;45270;-67
2022/11/14 12:35:49;;;;;;;3.13;2.17;;;19.20;66.70;;;;;;6150497;23;45376;-67
2022/11/14 12:38:19;;;;;;;4.15;2.40;;;19.20;66.80;;;;;;6149345;23;45367;-67
2022/11/14 12:40:52;;;;;;;3.88;2.60;;;19.20;66.90;;;;;;6148948;23;45282;-67
2022/11/14 12:43:32;;;;;;;3.00;2.20;;;19.20;67.10;;;;;;6150956;23;45326;-67
2022/11/14 12:46:01;;;;;;;3.38;2.50;;;19.20;67.40;;;;;;6151839;23;45320;-67
2022/11/14 12:48:33;;;;;;;3.20;2.25;;;19.20;67.50;;;;;;6150656;23;47570;-68
2022/11/14 12:51:01;;;;;;;3.05;2.45;;;19.10;67.40;;;;;;6149973;23;45245;-67
2022/11/14 12:53:40;;;;;;;5.90;2.53;;;19.20;67.60;;;;;;6152215;23;45303;-68
2022/11/14 12:56:18;;;;;;;3.55;2.30;;;19.10;67.50;;;;;;6151519;23;45415;-67
2022/11/14 12:58:55;;;;;;;4.75;2.38;;;19.10;67.40;;;;;;6151391;23;47282;-68
2022/11/14 13:01:41;;;;;;;6.57;2.60;;;19.10;67.50;;;;;;6149556;23;45278;-68
2022/11/14 13:04:21;;;;;;;4.80;2.70;;;19.10;67.50;;;;;;6151224;23;45162;-68